sensor_id;sensor_type;location;lat;lon;timestamp;temperature;humidity
78514;SHT31;67814;51.976;5.810;2023-02-15T00:01:51;6.1;66.4
78514;SHT31;67814;51.976;5.810;2023-02-15T00:04:22;6.1;66.5
78514;SHT31;67814;51.976;5.810;2023-02-15T00:06:57;6.1;66.7
78514;SHT31;67814;51.976;5.810;2023-02-15T00:09:27;6.0;66.7
78514;SHT31;67814;51.976;5.810;2023-02-15T00:11:56;6.0;66.9
78514;SHT31;67814;51.976;5.810;2023-02-15T00:14:26;6.0;66.9
78514;SHT31;67814;51.976;5.810;2023-02-15T00:16:56;6.0;67.0
78514;SHT31;67814;51.976;5.810;2023-02-15T00:19:27;6.0;67.1
78514;SHT31;67814;51.976;5.810;2023-02-15T00:21:57;6.0;67.2
78514;SHT31;67814;51.976;5.810;2023-02-15T00:24:26;5.9;67.3
78514;SHT31;67814;51.976;5.810;2023-02-15T00:26:56;5.9;67.3
78514;SHT31;67814;51.976;5.810;2023-02-15T00:29:26;5.9;67.0
78514;SHT31;67814;51.976;5.810;2023-02-15T00:31:55;5.9;66.8
78514;SHT31;67814;51.976;5.810;2023-02-15T00:34:27;5.9;66.7
78514;SHT31;67814;51.976;5.810;2023-02-15T00:36:56;5.9;66.7
78514;SHT31;67814;51.976;5.810;2023-02-15T00:39:26;5.8;66.7
78514;SHT31;67814;51.976;5.810;2023-02-15T00:41:58;5.8;66.6
78514;SHT31;67814;51.976;5.810;2023-02-15T00:44:27;5.8;66.4
78514;SHT31;67814;51.976;5.810;2023-02-15T00:46:57;5.8;66.4
78514;SHT31;67814;51.976;5.810;2023-02-15T00:49:27;5.8;66.7
78514;SHT31;67814;51.976;5.810;2023-02-15T00:51:56;5.7;66.6
78514;SHT31;67814;51.976;5.810;2023-02-15T00:54:26;5.7;66.5
78514;SHT31;67814;51.976;5.810;2023-02-15T00:56:55;5.7;66.5
78514;SHT31;67814;51.976;5.810;2023-02-15T00:59:25;5.7;66.4
78514;SHT31;67814;51.976;5.810;2023-02-15T01:01:54;5.7;66.6
78514;SHT31;67814;51.976;5.810;2023-02-15T01:04:24;5.6;66.6
78514;SHT31;67814;51.976;5.810;2023-02-15T01:06:54;5.6;67.0
78514;SHT31;67814;51.976;5.810;2023-02-15T01:09:23;5.6;67.1
78514;SHT31;67814;51.976;5.810;2023-02-15T01:11:53;5.6;67.4
78514;SHT31;67814;51.976;5.810;2023-02-15T01:14:23;5.6;67.2
78514;SHT31;67814;51.976;5.810;2023-02-15T01:16:52;5.5;67.1
78514;SHT31;67814;51.976;5.810;2023-02-15T01:19:22;5.5;67.1
78514;SHT31;67814;51.976;5.810;2023-02-15T01:21:51;5.5;66.9
78514;SHT31;67814;51.976;5.810;2023-02-15T01:24:21;5.5;66.9
78514;SHT31;67814;51.976;5.810;2023-02-15T01:26:51;5.5;66.8
78514;SHT31;67814;51.976;5.810;2023-02-15T01:29:20;5.5;66.7
78514;SHT31;67814;51.976;5.810;2023-02-15T01:31:52;5.5;67.0
78514;SHT31;67814;51.976;5.810;2023-02-15T01:34:22;5.4;67.0
78514;SHT31;67814;51.976;5.810;2023-02-15T01:36:51;5.4;66.9
78514;SHT31;67814;51.976;5.810;2023-02-15T01:39:21;5.4;67.0
78514;SHT31;67814;51.976;5.810;2023-02-15T01:41:51;5.4;67.1
78514;SHT31;67814;51.976;5.810;2023-02-15T01:44:46;5.4;67.0
78514;SHT31;67814;51.976;5.810;2023-02-15T01:47:22;5.3;66.9
78514;SHT31;67814;51.976;5.810;2023-02-15T01:50:01;5.3;67.4
78514;SHT31;67814;51.976;5.810;2023-02-15T01:52:34;5.3;67.5
78514;SHT31;67814;51.976;5.810;2023-02-15T01:55:06;5.3;67.3
78514;SHT31;67814;51.976;5.810;2023-02-15T01:57:37;5.2;67.3
78514;SHT31;67814;51.976;5.810;2023-02-15T02:00:08;5.2;67.3
78514;SHT31;67814;51.976;5.810;2023-02-15T02:02:41;5.2;67.6
78514;SHT31;67814;51.976;5.810;2023-02-15T02:05:12;5.2;67.6
78514;SHT31;67814;51.976;5.810;2023-02-15T02:07:44;5.2;67.4
78514;SHT31;67814;51.976;5.810;2023-02-15T02:10:17;5.2;67.4
78514;SHT31;67814;51.976;5.810;2023-02-15T02:12:49;5.2;67.5
78514;SHT31;67814;51.976;5.810;2023-02-15T02:15:23;5.2;67.5
78514;SHT31;67814;51.976;5.810;2023-02-15T02:18:07;5.2;67.4
78514;SHT31;67814;51.976;5.810;2023-02-15T02:20:56;5.2;67.3
78514;SHT31;67814;51.976;5.810;2023-02-15T02:23:38;5.2;67.1
78514;SHT31;67814;51.976;5.810;2023-02-15T02:27:21;5.2;67.1
78514;SHT31;67814;51.976;5.810;2023-02-15T02:34:29;5.1;67.6
78514;SHT31;67814;51.976;5.810;2023-02-15T02:37:11;5.2;67.3
78514;SHT31;67814;51.976;5.810;2023-02-15T02:39:51;5.2;67.0
78514;SHT31;67814;51.976;5.810;2023-02-15T02:42:31;5.2;67.2
78514;SHT31;67814;51.976;5.810;2023-02-15T02:45:08;5.2;67.1
78514;SHT31;67814;51.976;5.810;2023-02-15T02:47:43;5.2;66.7
78514;SHT31;67814;51.976;5.810;2023-02-15T02:50:18;5.2;66.5
78514;SHT31;67814;51.976;5.810;2023-02-15T02:52:52;5.3;66.4
78514;SHT31;67814;51.976;5.810;2023-02-15T02:55:26;5.3;66.3
78514;SHT31;67814;51.976;5.810;2023-02-15T02:58:02;5.3;66.1
78514;SHT31;67814;51.976;5.810;2023-02-15T03:00:36;5.3;66.1
78514;SHT31;67814;51.976;5.810;2023-02-15T03:03:11;5.2;66.1
78514;SHT31;67814;51.976;5.810;2023-02-15T03:05:45;5.2;66.2
78514;SHT31;67814;51.976;5.810;2023-02-15T03:08:19;5.2;66.0
78514;SHT31;67814;51.976;5.810;2023-02-15T03:10:53;5.1;66.1
78514;SHT31;67814;51.976;5.810;2023-02-15T03:13:27;5.1;66.3
78514;SHT31;67814;51.976;5.810;2023-02-15T03:15:58;5.1;66.0
78514;SHT31;67814;51.976;5.810;2023-02-15T03:18:49;5.0;66.1
78514;SHT31;67814;51.976;5.810;2023-02-15T03:21:31;5.0;66.9
78514;SHT31;67814;51.976;5.810;2023-02-15T03:24:06;5.0;66.6
78514;SHT31;67814;51.976;5.810;2023-02-15T03:26:39;5.0;66.5
78514;SHT31;67814;51.976;5.810;2023-02-15T03:29:12;4.9;66.6
78514;SHT31;67814;51.976;5.810;2023-02-15T03:31:46;4.9;66.5
78514;SHT31;67814;51.976;5.810;2023-02-15T03:34:18;4.9;66.5
78514;SHT31;67814;51.976;5.810;2023-02-15T03:36:55;4.9;66.6
78514;SHT31;67814;51.976;5.810;2023-02-15T03:39:31;4.9;66.7
78514;SHT31;67814;51.976;5.810;2023-02-15T03:42:08;4.8;66.8
78514;SHT31;67814;51.976;5.810;2023-02-15T03:44:46;4.8;66.6
78514;SHT31;67814;51.976;5.810;2023-02-15T03:47:22;4.8;67.2
78514;SHT31;67814;51.976;5.810;2023-02-15T03:49:57;4.8;67.0
78514;SHT31;67814;51.976;5.810;2023-02-15T03:52:32;4.8;67.6
78514;SHT31;67814;51.976;5.810;2023-02-15T03:55:02;4.7;67.4
78514;SHT31;67814;51.976;5.810;2023-02-15T03:57:35;4.7;67.5
78514;SHT31;67814;51.976;5.810;2023-02-15T04:00:24;4.7;67.2
78514;SHT31;67814;51.976;5.810;2023-02-15T04:03:28;4.7;67.8
78514;SHT31;67814;51.976;5.810;2023-02-15T04:06:01;4.7;67.5
78514;SHT31;67814;51.976;5.810;2023-02-15T04:08:32;4.7;67.3
78514;SHT31;67814;51.976;5.810;2023-02-15T04:13:01;4.7;67.3
78514;SHT31;67814;51.976;5.810;2023-02-15T04:15:31;4.7;67.4
78514;SHT31;67814;51.976;5.810;2023-02-15T04:18:17;4.7;68.1
78514;SHT31;67814;51.976;5.810;2023-02-15T04:20:47;4.7;67.4
78514;SHT31;67814;51.976;5.810;2023-02-15T04:23:32;4.7;67.6
78514;SHT31;67814;51.976;5.810;2023-02-15T04:26:20;4.7;68.6
78514;SHT31;67814;51.976;5.810;2023-02-15T04:28:50;4.7;68.8
78514;SHT31;67814;51.976;5.810;2023-02-15T04:31:19;4.7;68.2
78514;SHT31;67814;51.976;5.810;2023-02-15T04:33:49;4.7;68.2
78514;SHT31;67814;51.976;5.810;2023-02-15T04:36:18;4.7;69.0
78514;SHT31;67814;51.976;5.810;2023-02-15T04:38:48;4.7;69.5
78514;SHT31;67814;51.976;5.810;2023-02-15T04:41:18;4.7;68.7
78514;SHT31;67814;51.976;5.810;2023-02-15T04:43:47;4.7;68.4
78514;SHT31;67814;51.976;5.810;2023-02-15T04:46:17;4.7;67.9
78514;SHT31;67814;51.976;5.810;2023-02-15T04:48:47;4.7;67.8
78514;SHT31;67814;51.976;5.810;2023-02-15T04:51:16;4.7;67.5
78514;SHT31;67814;51.976;5.810;2023-02-15T04:53:46;4.7;67.6
78514;SHT31;67814;51.976;5.810;2023-02-15T04:56:15;4.7;67.8
78514;SHT31;67814;51.976;5.810;2023-02-15T04:58:45;4.7;67.9
78514;SHT31;67814;51.976;5.810;2023-02-15T05:01:16;4.7;68.3
78514;SHT31;67814;51.976;5.810;2023-02-15T05:03:46;4.7;68.2
78514;SHT31;67814;51.976;5.810;2023-02-15T05:06:16;4.7;68.7
78514;SHT31;67814;51.976;5.810;2023-02-15T05:08:45;4.7;69.0
78514;SHT31;67814;51.976;5.810;2023-02-15T05:11:15;4.7;68.8
78514;SHT31;67814;51.976;5.810;2023-02-15T05:13:44;4.7;68.3
78514;SHT31;67814;51.976;5.810;2023-02-15T05:16:16;4.7;69.0
78514;SHT31;67814;51.976;5.810;2023-02-15T05:18:46;4.7;68.5
78514;SHT31;67814;51.976;5.810;2023-02-15T05:21:17;4.7;69.3
78514;SHT31;67814;51.976;5.810;2023-02-15T05:23:47;4.7;69.1
78514;SHT31;67814;51.976;5.810;2023-02-15T05:26:20;4.7;69.6
78514;SHT31;67814;51.976;5.810;2023-02-15T05:29:07;4.7;69.7
78514;SHT31;67814;51.976;5.810;2023-02-15T05:31:37;4.7;69.1
78514;SHT31;67814;51.976;5.810;2023-02-15T05:34:08;4.7;69.3
78514;SHT31;67814;51.976;5.810;2023-02-15T05:36:38;4.7;69.0
78514;SHT31;67814;51.976;5.810;2023-02-15T05:39:09;4.7;68.8
78514;SHT31;67814;51.976;5.810;2023-02-15T05:41:39;4.7;69.3
78514;SHT31;67814;51.976;5.810;2023-02-15T05:44:08;4.7;69.4
78514;SHT31;67814;51.976;5.810;2023-02-15T05:46:38;4.7;69.5
78514;SHT31;67814;51.976;5.810;2023-02-15T05:49:07;4.7;69.2
78514;SHT31;67814;51.976;5.810;2023-02-15T05:51:39;4.7;69.0
78514;SHT31;67814;51.976;5.810;2023-02-15T05:54:09;4.7;68.7
78514;SHT31;67814;51.976;5.810;2023-02-15T05:56:38;4.6;68.9
78514;SHT31;67814;51.976;5.810;2023-02-15T05:59:08;4.6;68.9
78514;SHT31;67814;51.976;5.810;2023-02-15T06:01:40;4.7;68.8
78514;SHT31;67814;51.976;5.810;2023-02-15T06:04:10;4.7;68.4
78514;SHT31;67814;51.976;5.810;2023-02-15T06:06:39;4.7;68.0
78514;SHT31;67814;51.976;5.810;2023-02-15T06:09:09;4.7;67.7
78514;SHT31;67814;51.976;5.810;2023-02-15T06:11:40;4.7;67.2
78514;SHT31;67814;51.976;5.810;2023-02-15T06:14:09;4.7;66.7
78514;SHT31;67814;51.976;5.810;2023-02-15T06:16:39;4.7;66.5
78514;SHT31;67814;51.976;5.810;2023-02-15T06:19:10;4.7;66.4
78514;SHT31;67814;51.976;5.810;2023-02-15T06:21:43;4.6;66.7
78514;SHT31;67814;51.976;5.810;2023-02-15T06:24:13;4.6;66.6
78514;SHT31;67814;51.976;5.810;2023-02-15T06:26:44;4.6;66.7
78514;SHT31;67814;51.976;5.810;2023-02-15T06:29:14;4.6;66.8
78514;SHT31;67814;51.976;5.810;2023-02-15T06:31:44;4.5;67.0
78514;SHT31;67814;51.976;5.810;2023-02-15T06:34:13;4.5;66.8
78514;SHT31;67814;51.976;5.810;2023-02-15T06:36:43;4.5;66.9
78514;SHT31;67814;51.976;5.810;2023-02-15T06:39:13;4.5;66.8
78514;SHT31;67814;51.976;5.810;2023-02-15T06:41:42;4.4;67.1
78514;SHT31;67814;51.976;5.810;2023-02-15T06:44:14;4.4;67.1
78514;SHT31;67814;51.976;5.810;2023-02-15T06:46:45;4.4;67.1
78514;SHT31;67814;51.976;5.810;2023-02-15T06:49:15;4.4;67.4
78514;SHT31;67814;51.976;5.810;2023-02-15T06:51:44;4.4;67.4
78514;SHT31;67814;51.976;5.810;2023-02-15T06:54:14;4.4;67.2
78514;SHT31;67814;51.976;5.810;2023-02-15T06:56:44;4.4;67.2
78514;SHT31;67814;51.976;5.810;2023-02-15T06:59:14;4.4;67.6
78514;SHT31;67814;51.976;5.810;2023-02-15T07:01:43;4.4;68.0
78514;SHT31;67814;51.976;5.810;2023-02-15T07:04:13;4.4;67.9
78514;SHT31;67814;51.976;5.810;2023-02-15T07:06:43;4.4;68.1
78514;SHT31;67814;51.976;5.810;2023-02-15T07:09:15;4.3;68.1
78514;SHT31;67814;51.976;5.810;2023-02-15T07:11:44;4.4;67.9
78514;SHT31;67814;51.976;5.810;2023-02-15T07:15:46;4.4;68.4
78514;SHT31;67814;51.976;5.810;2023-02-15T07:18:16;4.4;68.6
78514;SHT31;67814;51.976;5.810;2023-02-15T07:20:46;4.4;68.8
78514;SHT31;67814;51.976;5.810;2023-02-15T07:23:16;4.4;68.4
78514;SHT31;67814;51.976;5.810;2023-02-15T07:25:46;4.4;69.0
78514;SHT31;67814;51.976;5.810;2023-02-15T07:28:15;4.4;69.2
78514;SHT31;67814;51.976;5.810;2023-02-15T07:30:45;4.4;69.0
78514;SHT31;67814;51.976;5.810;2023-02-15T07:33:17;4.4;69.6
78514;SHT31;67814;51.976;5.810;2023-02-15T07:35:56;4.5;69.5
78514;SHT31;67814;51.976;5.810;2023-02-15T07:38:27;4.5;69.7
78514;SHT31;67814;51.976;5.810;2023-02-15T07:41:00;4.5;70.1
78514;SHT31;67814;51.976;5.810;2023-02-15T07:43:32;4.5;70.5
78514;SHT31;67814;51.976;5.810;2023-02-15T07:46:03;4.6;70.7
78514;SHT31;67814;51.976;5.810;2023-02-15T07:48:35;4.6;70.8
78514;SHT31;67814;51.976;5.810;2023-02-15T07:51:07;4.6;70.9
78514;SHT31;67814;51.976;5.810;2023-02-15T07:53:38;4.7;71.2
78514;SHT31;67814;51.976;5.810;2023-02-15T07:56:10;4.7;71.1
78514;SHT31;67814;51.976;5.810;2023-02-15T07:58:41;4.8;71.1
78514;SHT31;67814;51.976;5.810;2023-02-15T08:01:28;4.8;71.6
78514;SHT31;67814;51.976;5.810;2023-02-15T08:03:59;4.9;71.4
78514;SHT31;67814;51.976;5.810;2023-02-15T08:06:31;4.9;71.1
78514;SHT31;67814;51.976;5.810;2023-02-15T08:09:03;5.0;71.2
78514;SHT31;67814;51.976;5.810;2023-02-15T08:11:35;5.0;70.9
78514;SHT31;67814;51.976;5.810;2023-02-15T08:14:08;5.0;70.8
78514;SHT31;67814;51.976;5.810;2023-02-15T08:16:40;5.1;70.6
78514;SHT31;67814;51.976;5.810;2023-02-15T08:19:12;5.1;70.7
78514;SHT31;67814;51.976;5.810;2023-02-15T08:21:44;5.2;70.7
78514;SHT31;67814;51.976;5.810;2023-02-15T08:24:16;5.2;70.9
78514;SHT31;67814;51.976;5.810;2023-02-15T08:26:47;5.3;70.5
78514;SHT31;67814;51.976;5.810;2023-02-15T08:29:18;5.4;70.5
78514;SHT31;67814;51.976;5.810;2023-02-15T08:31:52;5.4;70.8
78514;SHT31;67814;51.976;5.810;2023-02-15T08:34:22;5.5;70.8
78514;SHT31;67814;51.976;5.810;2023-02-15T08:36:51;5.5;70.7
78514;SHT31;67814;51.976;5.810;2023-02-15T08:39:21;5.6;70.5
78514;SHT31;67814;51.976;5.810;2023-02-15T08:41:51;5.7;70.5
78514;SHT31;67814;51.976;5.810;2023-02-15T08:44:21;5.7;70.2
78514;SHT31;67814;51.976;5.810;2023-02-15T08:46:50;5.8;70.5
78514;SHT31;67814;51.976;5.810;2023-02-15T08:49:22;5.9;70.5
78514;SHT31;67814;51.976;5.810;2023-02-15T08:51:52;5.9;70.1
78514;SHT31;67814;51.976;5.810;2023-02-15T08:54:21;6.0;69.7
78514;SHT31;67814;51.976;5.810;2023-02-15T08:56:51;6.0;69.2
78514;SHT31;67814;51.976;5.810;2023-02-15T08:59:22;6.1;69.2
78514;SHT31;67814;51.976;5.810;2023-02-15T09:01:54;6.2;68.9
78514;SHT31;67814;51.976;5.810;2023-02-15T09:04:24;6.2;68.7
78514;SHT31;67814;51.976;5.810;2023-02-15T09:06:53;6.3;68.5
78514;SHT31;67814;51.976;5.810;2023-02-15T09:09:25;6.3;68.3
78514;SHT31;67814;51.976;5.810;2023-02-15T09:11:54;6.4;68.4
78514;SHT31;67814;51.976;5.810;2023-02-15T09:14:24;6.4;68.3
78514;SHT31;67814;51.976;5.810;2023-02-15T09:16:54;6.5;68.8
78514;SHT31;67814;51.976;5.810;2023-02-15T09:19:24;6.5;68.9
78514;SHT31;67814;51.976;5.810;2023-02-15T09:21:54;6.6;68.6
78514;SHT31;67814;51.976;5.810;2023-02-15T09:24:27;6.7;68.6
78514;SHT31;67814;51.976;5.810;2023-02-15T09:27:01;6.7;68.4
78514;SHT31;67814;51.976;5.810;2023-02-15T09:29:30;6.8;68.3
78514;SHT31;67814;51.976;5.810;2023-02-15T09:32:00;6.9;68.4
78514;SHT31;67814;51.976;5.810;2023-02-15T09:34:30;7.0;68.2
78514;SHT31;67814;51.976;5.810;2023-02-15T09:36:59;7.0;67.6
78514;SHT31;67814;51.976;5.810;2023-02-15T09:39:30;7.1;67.6
78514;SHT31;67814;51.976;5.810;2023-02-15T09:42:33;7.2;67.4
78514;SHT31;67814;51.976;5.810;2023-02-15T09:45:29;7.2;67.0
78514;SHT31;67814;51.976;5.810;2023-02-15T09:48:42;7.3;66.8
78514;SHT31;67814;51.976;5.810;2023-02-15T09:52:10;7.4;66.6
78514;SHT31;67814;51.976;5.810;2023-02-15T09:55:00;7.5;66.8
78514;SHT31;67814;51.976;5.810;2023-02-15T09:57:40;7.6;66.7
78514;SHT31;67814;51.976;5.810;2023-02-15T10:00:24;7.7;65.7
78514;SHT31;67814;51.976;5.810;2023-02-15T10:03:16;7.8;65.7
78514;SHT31;67814;51.976;5.810;2023-02-15T10:05:57;7.8;66.1
78514;SHT31;67814;51.976;5.810;2023-02-15T10:09:00;7.9;65.2
78514;SHT31;67814;51.976;5.810;2023-02-15T10:11:47;8.0;65.9
78514;SHT31;67814;51.976;5.810;2023-02-15T10:14:40;8.1;64.8
78514;SHT31;67814;51.976;5.810;2023-02-15T10:17:27;8.2;65.1
78514;SHT31;67814;51.976;5.810;2023-02-15T10:20:11;8.3;65.3
78514;SHT31;67814;51.976;5.810;2023-02-15T10:22:59;8.4;65.0
78514;SHT31;67814;51.976;5.810;2023-02-15T10:25:42;8.5;64.0
78514;SHT31;67814;51.976;5.810;2023-02-15T10:28:16;8.7;64.5
78514;SHT31;67814;51.976;5.810;2023-02-15T10:30:50;8.8;63.2
78514;SHT31;67814;51.976;5.810;2023-02-15T10:33:39;8.9;62.6
78514;SHT31;67814;51.976;5.810;2023-02-15T10:36:23;9.0;62.0
78514;SHT31;67814;51.976;5.810;2023-02-15T10:39:04;9.1;61.3
78514;SHT31;67814;51.976;5.810;2023-02-15T10:41:41;9.1;60.8
78514;SHT31;67814;51.976;5.810;2023-02-15T10:44:22;9.2;60.5
78514;SHT31;67814;51.976;5.810;2023-02-15T10:47:11;9.3;59.9
78514;SHT31;67814;51.976;5.810;2023-02-15T10:49:53;9.4;60.1
78514;SHT31;67814;51.976;5.810;2023-02-15T10:52:36;9.5;59.5
78514;SHT31;67814;51.976;5.810;2023-02-15T10:55:18;9.6;58.7
78514;SHT31;67814;51.976;5.810;2023-02-15T10:57:56;9.7;58.9
78514;SHT31;67814;51.976;5.810;2023-02-15T11:00:34;9.7;58.3
78514;SHT31;67814;51.976;5.810;2023-02-15T11:03:22;9.8;58.8
78514;SHT31;67814;51.976;5.810;2023-02-15T11:06:01;9.9;58.6
78514;SHT31;67814;51.976;5.810;2023-02-15T11:08:38;9.9;58.3
78514;SHT31;67814;51.976;5.810;2023-02-15T11:11:14;10.0;58.4
78514;SHT31;67814;51.976;5.810;2023-02-15T11:13:49;10.0;58.4
78514;SHT31;67814;51.976;5.810;2023-02-15T11:16:24;10.1;58.2
78514;SHT31;67814;51.976;5.810;2023-02-15T11:18:59;10.2;57.5
78514;SHT31;67814;51.976;5.810;2023-02-15T11:21:33;10.3;56.6
78514;SHT31;67814;51.976;5.810;2023-02-15T11:24:10;10.4;56.7
78514;SHT31;67814;51.976;5.810;2023-02-15T11:26:44;10.4;56.7
78514;SHT31;67814;51.976;5.810;2023-02-15T11:29:23;10.5;56.6
78514;SHT31;67814;51.976;5.810;2023-02-15T11:31:57;10.6;56.3
78514;SHT31;67814;51.976;5.810;2023-02-15T11:34:33;10.6;56.2
78514;SHT31;67814;51.976;5.810;2023-02-15T11:37:07;10.7;56.8
78514;SHT31;67814;51.976;5.810;2023-02-15T11:39:38;10.8;56.7
78514;SHT31;67814;51.976;5.810;2023-02-15T11:42:13;10.9;56.5
78514;SHT31;67814;51.976;5.810;2023-02-15T11:44:54;11.0;56.0
78514;SHT31;67814;51.976;5.810;2023-02-15T11:47:25;11.0;55.9
78514;SHT31;67814;51.976;5.810;2023-02-15T11:49:56;11.1;55.6
78514;SHT31;67814;51.976;5.810;2023-02-15T11:52:26;11.2;55.5
78514;SHT31;67814;51.976;5.810;2023-02-15T11:54:56;11.2;55.6
78514;SHT31;67814;51.976;5.810;2023-02-15T11:57:33;11.3;55.8
78514;SHT31;67814;51.976;5.810;2023-02-15T12:00:14;11.4;55.3
78514;SHT31;67814;51.976;5.810;2023-02-15T12:02:52;11.4;54.8
78514;SHT31;67814;51.976;5.810;2023-02-15T12:05:25;11.5;55.0
78514;SHT31;67814;51.976;5.810;2023-02-15T12:08:00;11.6;55.1
78514;SHT31;67814;51.976;5.810;2023-02-15T12:10:34;11.6;54.8
78514;SHT31;67814;51.976;5.810;2023-02-15T12:13:13;11.7;54.4
78514;SHT31;67814;51.976;5.810;2023-02-15T12:15:46;11.8;54.6
78514;SHT31;67814;51.976;5.810;2023-02-15T12:18:31;11.8;54.3
78514;SHT31;67814;51.976;5.810;2023-02-15T12:20:59;11.9;53.9
78514;SHT31;67814;51.976;5.810;2023-02-15T12:23:32;11.9;53.5
78514;SHT31;67814;51.976;5.810;2023-02-15T12:26:02;12.0;54.0
78514;SHT31;67814;51.976;5.810;2023-02-15T12:28:34;12.0;53.9
78514;SHT31;67814;51.976;5.810;2023-02-15T12:31:10;12.1;53.8
78514;SHT31;67814;51.976;5.810;2023-02-15T12:33:45;12.2;53.8
78514;SHT31;67814;51.976;5.810;2023-02-15T12:36:19;12.2;53.9
78514;SHT31;67814;51.976;5.810;2023-02-15T12:39:22;12.3;53.4
78514;SHT31;67814;51.976;5.810;2023-02-15T12:42:05;12.4;53.1
78514;SHT31;67814;51.976;5.810;2023-02-15T12:44:54;12.5;52.6
78514;SHT31;67814;51.976;5.810;2023-02-15T12:47:24;12.5;53.0
78514;SHT31;67814;51.976;5.810;2023-02-15T12:50:08;12.6;53.1
78514;SHT31;67814;51.976;5.810;2023-02-15T12:52:43;12.6;52.6
78514;SHT31;67814;51.976;5.810;2023-02-15T12:55:22;12.7;52.9
78514;SHT31;67814;51.976;5.810;2023-02-15T12:58:07;12.7;52.6
78514;SHT31;67814;51.976;5.810;2023-02-15T13:00:36;12.8;52.5
78514;SHT31;67814;51.976;5.810;2023-02-15T13:03:18;12.8;52.4
78514;SHT31;67814;51.976;5.810;2023-02-15T13:05:51;12.8;52.0
78514;SHT31;67814;51.976;5.810;2023-02-15T13:08:30;12.8;51.9
78514;SHT31;67814;51.976;5.810;2023-02-15T13:11:04;12.9;52.2
78514;SHT31;67814;51.976;5.810;2023-02-15T13:13:50;12.9;51.5
78514;SHT31;67814;51.976;5.810;2023-02-15T13:16:30;12.9;52.3
78514;SHT31;67814;51.976;5.810;2023-02-15T13:19:04;13.0;52.2
78514;SHT31;67814;51.976;5.810;2023-02-15T13:21:39;13.0;52.1
78514;SHT31;67814;51.976;5.810;2023-02-15T13:24:18;13.0;52.0
78514;SHT31;67814;51.976;5.810;2023-02-15T13:26:52;13.1;52.2
78514;SHT31;67814;51.976;5.810;2023-02-15T13:29:26;13.1;51.6
78514;SHT31;67814;51.976;5.810;2023-02-15T13:32:00;13.1;51.2
78514;SHT31;67814;51.976;5.810;2023-02-15T13:34:35;13.1;51.1
78514;SHT31;67814;51.976;5.810;2023-02-15T13:37:14;13.1;51.5
78514;SHT31;67814;51.976;5.810;2023-02-15T13:39:49;13.2;51.4
78514;SHT31;67814;51.976;5.810;2023-02-15T13:42:26;13.2;52.5
78514;SHT31;67814;51.976;5.810;2023-02-15T13:45:26;13.3;52.2
78514;SHT31;67814;51.976;5.810;2023-02-15T13:48:03;13.4;50.9
78514;SHT31;67814;51.976;5.810;2023-02-15T13:50:52;13.5;50.7
78514;SHT31;67814;51.976;5.810;2023-02-15T13:53:39;13.6;50.1
78514;SHT31;67814;51.976;5.810;2023-02-15T13:56:20;13.6;49.9
78514;SHT31;67814;51.976;5.810;2023-02-15T13:59:04;13.7;50.0
78514;SHT31;67814;51.976;5.810;2023-02-15T14:01:47;13.8;49.7
78514;SHT31;67814;51.976;5.810;2023-02-15T14:04:38;13.8;49.8
78514;SHT31;67814;51.976;5.810;2023-02-15T14:07:25;13.9;49.5
78514;SHT31;67814;51.976;5.810;2023-02-15T14:10:10;14.0;49.1
78514;SHT31;67814;51.976;5.810;2023-02-15T14:12:54;14.0;49.0
78514;SHT31;67814;51.976;5.810;2023-02-15T14:15:32;14.0;48.7
78514;SHT31;67814;51.976;5.810;2023-02-15T14:18:15;14.1;49.2
78514;SHT31;67814;51.976;5.810;2023-02-15T14:20:59;14.1;49.0
78514;SHT31;67814;51.976;5.810;2023-02-15T14:23:45;14.1;49.1
78514;SHT31;67814;51.976;5.810;2023-02-15T14:26:23;14.1;48.8
78514;SHT31;67814;51.976;5.810;2023-02-15T14:29:05;14.1;49.0
78514;SHT31;67814;51.976;5.810;2023-02-15T14:31:42;14.2;49.1
78514;SHT31;67814;51.976;5.810;2023-02-15T14:34:19;14.2;48.6
78514;SHT31;67814;51.976;5.810;2023-02-15T14:36:52;14.2;49.0
78514;SHT31;67814;51.976;5.810;2023-02-15T14:39:33;14.2;49.1
78514;SHT31;67814;51.976;5.810;2023-02-15T14:42:29;14.2;48.9
78514;SHT31;67814;51.976;5.810;2023-02-15T14:45:05;14.3;48.5
78514;SHT31;67814;51.976;5.810;2023-02-15T14:47:43;14.3;48.8
78514;SHT31;67814;51.976;5.810;2023-02-15T14:50:43;14.3;49.0
78514;SHT31;67814;51.976;5.810;2023-02-15T14:53:22;14.3;48.7
78514;SHT31;67814;51.976;5.810;2023-02-15T14:56:18;14.3;48.5
78514;SHT31;67814;51.976;5.810;2023-02-15T14:59:00;14.4;48.0
78514;SHT31;67814;51.976;5.810;2023-02-15T15:01:36;14.4;48.2
78514;SHT31;67814;51.976;5.810;2023-02-15T15:04:09;14.4;48.0
78514;SHT31;67814;51.976;5.810;2023-02-15T15:06:43;14.4;48.4
78514;SHT31;67814;51.976;5.810;2023-02-15T15:09:21;14.4;48.5
78514;SHT31;67814;51.976;5.810;2023-02-15T15:11:53;14.4;48.5
78514;SHT31;67814;51.976;5.810;2023-02-15T15:14:43;14.4;48.7
78514;SHT31;67814;51.976;5.810;2023-02-15T15:17:51;14.4;48.6
78514;SHT31;67814;51.976;5.810;2023-02-15T15:20:38;14.4;48.8
78514;SHT31;67814;51.976;5.810;2023-02-15T15:23:43;14.4;48.6
78514;SHT31;67814;51.976;5.810;2023-02-15T15:26:24;14.3;48.5
78514;SHT31;67814;51.976;5.810;2023-02-15T15:28:55;14.3;48.9
78514;SHT31;67814;51.976;5.810;2023-02-15T15:31:31;14.3;48.9
78514;SHT31;67814;51.976;5.810;2023-02-15T15:34:21;14.3;49.1
78514;SHT31;67814;51.976;5.810;2023-02-15T15:38:00;14.2;49.1
78514;SHT31;67814;51.976;5.810;2023-02-15T15:40:42;14.2;49.9
78514;SHT31;67814;51.976;5.810;2023-02-15T15:44:11;14.2;50.8
78514;SHT31;67814;51.976;5.810;2023-02-15T15:46:54;14.2;50.9
78514;SHT31;67814;51.976;5.810;2023-02-15T15:49:32;14.2;51.3
78514;SHT31;67814;51.976;5.810;2023-02-15T15:52:12;14.2;51.5
78514;SHT31;67814;51.976;5.810;2023-02-15T15:54:45;14.1;51.6
78514;SHT31;67814;51.976;5.810;2023-02-15T15:57:25;14.1;51.9
78514;SHT31;67814;51.976;5.810;2023-02-15T15:59:57;14.1;52.0
78514;SHT31;67814;51.976;5.810;2023-02-15T16:02:28;14.1;52.5
78514;SHT31;67814;51.976;5.810;2023-02-15T16:05:08;14.0;52.3
78514;SHT31;67814;51.976;5.810;2023-02-15T16:07:41;13.9;52.4
78514;SHT31;67814;51.976;5.810;2023-02-15T16:10:21;13.9;52.6
78514;SHT31;67814;51.976;5.810;2023-02-15T16:12:54;13.8;53.2
78514;SHT31;67814;51.976;5.810;2023-02-15T16:15:28;13.7;53.4
78514;SHT31;67814;51.976;5.810;2023-02-15T16:18:03;13.7;54.0
78514;SHT31;67814;51.976;5.810;2023-02-15T16:20:36;13.6;54.4
78514;SHT31;67814;51.976;5.810;2023-02-15T16:27:29;13.4;54.5
78514;SHT31;67814;51.976;5.810;2023-02-15T16:30:17;13.3;54.3
78514;SHT31;67814;51.976;5.810;2023-02-15T16:32:48;13.2;53.5
78514;SHT31;67814;51.976;5.810;2023-02-15T16:35:19;13.2;52.7
78514;SHT31;67814;51.976;5.810;2023-02-15T16:37:51;13.1;53.0
78514;SHT31;67814;51.976;5.810;2023-02-15T16:41:08;13.1;53.3
78514;SHT31;67814;51.976;5.810;2023-02-15T16:43:40;13.0;53.0
78514;SHT31;67814;51.976;5.810;2023-02-15T16:46:16;13.0;53.2
78514;SHT31;67814;51.976;5.810;2023-02-15T16:48:51;12.9;53.4
78514;SHT31;67814;51.976;5.810;2023-02-15T16:51:24;12.9;54.1
78514;SHT31;67814;51.976;5.810;2023-02-15T16:53:57;12.8;54.0
78514;SHT31;67814;51.976;5.810;2023-02-15T16:56:31;12.8;54.1
78514;SHT31;67814;51.976;5.810;2023-02-15T16:59:03;12.7;53.8
78514;SHT31;67814;51.976;5.810;2023-02-15T17:01:33;12.6;53.5
78514;SHT31;67814;51.976;5.810;2023-02-15T17:04:14;12.6;54.5
78514;SHT31;67814;51.976;5.810;2023-02-15T17:06:58;12.5;54.1
78514;SHT31;67814;51.976;5.810;2023-02-15T17:09:27;12.4;54.6
78514;SHT31;67814;51.976;5.810;2023-02-15T17:11:57;12.3;53.9
78514;SHT31;67814;51.976;5.810;2023-02-15T17:14:31;12.3;54.2
78514;SHT31;67814;51.976;5.810;2023-02-15T17:17:05;12.2;53.8
78514;SHT31;67814;51.976;5.810;2023-02-15T17:19:49;12.2;54.5
78514;SHT31;67814;51.976;5.810;2023-02-15T17:22:23;12.1;53.9